createdAt,value
2018-09-26T00:00:09.365Z,77.30
2018-09-26T00:02:47.959Z,76.60
2018-09-26T00:05:19.472Z,77.05
2018-09-26T00:07:49.286Z,77.02
2018-09-26T00:10:19.379Z,79.72
2018-09-26T00:12:49.228Z,79.89
2018-09-26T00:15:19.023Z,80.22
2018-09-26T00:17:48.838Z,80.43
2018-09-26T00:20:18.712Z,81.79
2018-09-26T00:22:48.742Z,80.26
2018-09-26T00:25:18.651Z,79.51
2018-09-26T00:27:48.467Z,77.66
2018-09-26T00:30:18.404Z,76.78
2018-09-26T00:32:48.388Z,75.33
2018-09-26T00:35:18.332Z,75.06
2018-09-26T00:37:48.386Z,77.39
2018-09-26T00:40:18.245Z,78.72
2018-09-26T00:42:48.074Z,80.07
2018-09-26T00:45:17.851Z,80.58
2018-09-26T00:47:47.911Z,81.48
2018-09-26T00:50:18.004Z,80.53
2018-09-26T00:52:48.028Z,79.82
2018-09-26T00:55:18.112Z,79.77
2018-09-26T00:57:48.140Z,80.71
2018-09-26T01:00:18.133Z,79.68
2018-09-26T01:02:48.173Z,80.34
2018-09-26T01:05:18.220Z,78.28
2018-09-26T01:07:48.345Z,76.79
2018-09-26T01:10:18.410Z,76.52
2018-09-26T01:12:48.361Z,76.94
2018-09-26T01:15:18.273Z,78.58
2018-09-26T01:17:48.380Z,79.90
2018-09-26T01:20:18.258Z,82.39
2018-09-26T01:22:48.325Z,82.06
2018-09-26T01:25:18.614Z,82.48
2018-09-26T01:27:48.463Z,81.66
2018-09-26T01:30:18.288Z,80.84
2018-09-26T01:32:49.162Z,81.68
2018-09-26T01:35:19.224Z,82.22
2018-09-26T01:37:49.243Z,83.06
2018-09-26T01:40:19.177Z,82.74
2018-09-26T01:42:49.241Z,83.22
2018-09-26T01:45:19.176Z,82.76
2018-09-26T01:47:49.251Z,81.83
2018-09-26T01:50:19.306Z,79.52
2018-09-26T01:52:49.375Z,78.81
2018-09-26T01:55:19.397Z,77.53
2018-09-26T01:57:49.343Z,76.94
2018-09-26T02:00:19.384Z,75.67
2018-09-26T02:02:49.415Z,75.60
2018-09-26T02:05:19.485Z,76.42
2018-09-26T02:07:49.269Z,81.15
2018-09-26T02:10:19.304Z,81.94
2018-09-26T02:12:49.207Z,83.40
2018-09-26T02:15:19.030Z,82.36
2018-09-26T02:17:48.895Z,80.55
2018-09-26T02:20:18.687Z,82.53
2018-09-26T02:22:48.519Z,81.49
2018-09-26T02:25:18.291Z,81.33
2018-09-26T02:27:48.425Z,82.44
2018-09-26T02:30:18.420Z,81.21
2018-09-26T02:32:48.517Z,81.75
2018-09-26T02:35:18.997Z,80.86
2018-09-26T02:37:48.736Z,80.69
2018-09-26T02:40:18.684Z,79.65
2018-09-26T02:42:48.713Z,80.02
2018-09-26T02:45:18.446Z,79.90
2018-09-26T02:47:48.265Z,82.21
2018-09-26T02:50:18.531Z,83.61
2018-09-26T02:52:48.352Z,82.23
2018-09-26T02:55:18.270Z,83.87
2018-09-26T02:57:48.251Z,82.75
2018-09-26T03:00:18.178Z,82.90
2018-09-26T03:02:48.201Z,82.06
2018-09-26T03:05:18.228Z,80.57
2018-09-26T03:07:48.086Z,79.05
2018-09-26T03:10:18.196Z,78.78
2018-09-26T03:12:48.210Z,77.73
2018-09-26T03:15:18.256Z,79.53
2018-09-26T03:17:48.146Z,80.95
2018-09-26T03:20:17.980Z,79.81
2018-09-26T03:22:47.752Z,78.38
2018-09-26T03:25:17.824Z,79.66
2018-09-26T03:27:47.600Z,80.39
2018-09-26T03:30:17.668Z,79.30
2018-09-26T03:32:47.873Z,79.82
2018-09-26T03:35:18.758Z,81.91
2018-09-26T03:37:48.713Z,79.51
2018-09-26T03:40:18.555Z,80.83
2018-09-26T03:42:48.571Z,81.31
2018-09-26T03:45:18.551Z,82.06
2018-09-26T03:47:48.589Z,82.33
2018-09-26T03:50:18.524Z,81.43
2018-09-26T03:52:48.475Z,82.78
2018-09-26T03:55:18.479Z,82.02
2018-09-26T03:57:48.611Z,82.16
2018-09-26T04:00:18.701Z,81.54
2018-09-26T04:02:48.683Z,81.15
2018-09-26T04:05:18.683Z,80.94
2018-09-26T04:07:48.527Z,81.29
2018-09-26T04:10:18.301Z,79.69
2018-09-26T04:12:48.179Z,77.58
2018-09-26T04:15:18.022Z,77.49
2018-09-26T04:17:47.963Z,78.92
2018-09-26T04:20:18.385Z,83.31
2018-09-26T04:22:48.277Z,83.01
2018-09-26T04:25:18.287Z,83.63
2018-09-26T04:27:48.361Z,82.17
2018-09-26T04:30:18.393Z,81.45
2018-09-26T04:32:48.253Z,80.24
2018-09-26T04:35:18.224Z,79.21
2018-09-26T04:37:48.080Z,81.33
2018-09-26T04:40:18.156Z,82.24
2018-09-26T04:42:48.173Z,81.58
2018-09-26T04:45:18.199Z,81.38
2018-09-26T04:47:48.223Z,83.12
2018-09-26T04:50:18.408Z,83.66
2018-09-26T04:52:48.274Z,82.23
2018-09-26T04:55:18.138Z,80.33
2018-09-26T04:57:48.240Z,83.64
2018-09-26T05:00:18.476Z,83.80
2018-09-26T05:02:48.407Z,85.88
2018-09-26T05:05:18.560Z,84.16
2018-09-26T05:07:48.420Z,82.34
2018-09-26T05:10:18.177Z,84.65
2018-09-26T05:12:48.186Z,83.60
2018-09-26T05:15:18.467Z,82.44
2018-09-26T05:17:48.341Z,83.01
2018-09-26T05:20:18.190Z,83.44
2018-09-26T05:22:48.052Z,83.67
2018-09-26T05:25:18.070Z,83.62
2018-09-26T05:27:48.267Z,83.24
2018-09-26T05:30:18.261Z,81.26
2018-09-26T05:32:48.090Z,82.30
2018-09-26T05:35:18.385Z,80.52
2018-09-26T05:37:48.219Z,81.41
2018-09-26T05:40:18.058Z,82.60
2018-09-26T05:42:48.584Z,82.71
2018-09-26T05:45:18.410Z,83.32
2018-09-26T05:47:48.248Z,82.50
2018-09-26T05:50:18.295Z,82.86
2018-09-26T05:52:48.174Z,80.73
2018-09-26T05:55:18.159Z,81.27
2018-09-26T05:57:48.094Z,81.39
2018-09-26T06:00:17.937Z,79.33
2018-09-26T06:02:48.277Z,80.68
2018-09-26T06:05:18.212Z,81.77
2018-09-26T06:07:48.544Z,80.98
2018-09-26T06:10:18.414Z,82.08
2018-09-26T06:12:48.291Z,81.31
2018-09-26T06:15:18.172Z,79.57
2018-09-26T06:17:47.999Z,79.89
2018-09-26T06:20:17.984Z,80.36
2018-09-26T06:22:47.987Z,78.76
2018-09-26T06:25:17.925Z,79.12
2018-09-26T06:27:48.042Z,78.80
2018-09-26T06:30:18.032Z,75.95
2018-09-26T06:32:48.083Z,75.78
2018-09-26T06:35:18.170Z,76.24
2018-09-26T06:37:48.323Z,76.65
2018-09-26T06:40:18.861Z,76.42
2018-09-26T06:42:48.831Z,77.06
2018-09-26T06:45:18.954Z,77.32
2018-09-26T06:47:49.101Z,79.41
2018-09-26T06:50:19.099Z,77.65
2018-09-26T06:52:49.052Z,75.85
2018-09-26T06:55:18.968Z,76.09
2018-09-26T06:57:49.293Z,75.73
2018-09-26T07:00:19.312Z,75.26
2018-09-26T07:02:49.299Z,74.96
2018-09-26T07:05:19.617Z,74.74
2018-09-26T07:07:49.618Z,74.36
2018-09-26T07:10:19.699Z,74.53
2018-09-26T07:12:49.447Z,74.08
2018-09-26T07:15:19.720Z,73.66
2018-09-26T07:17:49.950Z,73.94
2018-09-26T07:20:20.099Z,72.82
2018-09-26T07:22:50.134Z,72.84
2018-09-26T07:25:20.220Z,72.25
2018-09-26T07:27:50.341Z,71.66
2018-09-26T07:30:20.277Z,71.71
2018-09-26T07:32:50.313Z,71.72
2018-09-26T07:35:20.642Z,70.15
2018-09-26T07:37:50.837Z,70.79
2018-09-26T07:40:20.797Z,69.59
2018-09-26T07:42:51.212Z,70.58
2018-09-26T07:45:21.104Z,70.54
2018-09-26T07:47:51.115Z,70.78
2018-09-26T07:50:21.367Z,70.34
2018-09-26T07:52:52.166Z,70.10
2018-09-26T07:55:25.667Z,70.47
2018-09-26T07:57:55.723Z,68.70
2018-09-26T08:00:25.956Z,68.76
2018-09-26T08:02:56.011Z,68.40
2018-09-26T08:05:26.218Z,67.78
2018-09-26T08:07:56.036Z,68.44
2018-09-26T08:10:27.988Z,66.44
2018-09-26T08:12:58.164Z,67.55
2018-09-26T08:15:28.235Z,68.36
2018-09-26T08:17:58.502Z,68.19
2018-09-26T08:20:28.534Z,66.90
2018-09-26T08:23:00.178Z,66.54
2018-09-26T08:25:30.153Z,66.05
2018-09-26T08:28:00.304Z,66.27
2018-09-26T08:30:30.364Z,66.86
2018-09-26T08:33:00.572Z,66.45
2018-09-26T08:35:42.119Z,67.11
2018-09-26T08:38:12.239Z,66.16
2018-09-26T08:43:36.571Z,64.39
2018-09-26T08:46:06.592Z,63.86
2018-09-26T08:48:36.637Z,63.61
2018-09-26T08:51:08.305Z,64.47
2018-09-26T08:53:38.502Z,64.57
2018-09-26T08:56:09.028Z,64.86
2018-09-26T08:58:38.934Z,63.48
2018-09-26T09:01:14.406Z,62.59
2018-09-26T09:03:45.488Z,61.67
2018-09-26T09:06:16.835Z,60.49
2018-09-26T09:08:46.786Z,62.97
2018-09-26T09:17:13.106Z,60.13
2018-09-26T09:20:03.769Z,57.41
2018-09-26T09:22:33.724Z,56.82
2018-09-26T09:25:03.702Z,59.64
2018-09-26T09:27:33.539Z,60.16
2018-09-26T09:30:03.479Z,59.85
2018-09-26T09:32:33.329Z,57.60
2018-09-26T09:35:03.515Z,58.83
2018-09-26T09:37:33.522Z,58.58
2018-09-26T09:40:03.492Z,58.08
2018-09-26T09:42:33.460Z,58.31
2018-09-26T09:45:03.446Z,57.13
2018-09-26T09:47:33.400Z,58.66
2018-09-26T09:50:03.379Z,58.24
2018-09-26T09:52:33.355Z,57.92
2018-09-26T09:55:03.426Z,58.52
2018-09-26T09:57:33.348Z,59.23
2018-09-26T10:00:10.135Z,55.44
2018-09-26T10:02:42.182Z,55.15
2018-09-26T10:05:13.419Z,56.66
2018-09-26T10:07:43.360Z,57.37
2018-09-26T10:10:19.164Z,55.59
2018-09-26T10:12:50.968Z,57.72
2018-09-26T10:15:20.989Z,56.98
2018-09-26T10:17:51.007Z,55.70
2018-09-26T10:21:39.202Z,53.69
2018-09-26T10:24:13.452Z,53.65
2018-09-26T10:26:43.529Z,54.23
2018-09-26T10:29:13.527Z,55.56
2018-09-26T10:31:44.789Z,55.32
2018-09-26T10:34:14.915Z,55.29
2018-09-26T10:36:45.318Z,53.15
2018-09-26T10:39:18.104Z,54.35
2018-09-26T10:44:24.237Z,53.08
2018-09-26T10:46:54.290Z,49.91
2018-09-26T10:49:24.524Z,53.57
2018-09-26T10:51:56.015Z,53.01
2018-09-26T10:54:26.609Z,52.03
2018-09-26T10:56:58.880Z,52.11
2018-09-26T10:59:28.964Z,51.85
2018-09-26T11:02:01.618Z,53.01
2018-09-26T11:04:31.487Z,52.83
2018-09-26T11:10:01.132Z,53.27
2018-09-26T11:12:32.126Z,52.29
2018-09-26T11:15:03.405Z,52.47
2018-09-26T11:17:34.176Z,52.97
2018-09-26T11:20:04.220Z,50.48
2018-09-26T11:22:34.108Z,52.57
2018-09-26T11:25:04.197Z,51.97
2018-09-26T11:27:54.625Z,50.73
2018-09-26T11:30:24.693Z,50.96
2018-09-26T11:33:06.710Z,51.21
2018-09-26T11:38:36.871Z,50.32
2018-09-26T11:41:06.853Z,50.57
2018-09-26T11:43:36.857Z,50.38
2018-09-26T11:46:06.936Z,50.25
2018-09-26T11:48:37.401Z,49.95
2018-09-26T11:51:07.552Z,48.05
2018-09-26T11:53:37.632Z,48.17
2018-09-26T11:56:07.831Z,49.92
2018-09-26T11:58:37.754Z,46.53
2018-09-26T12:01:07.865Z,49.55
2018-09-26T12:03:37.887Z,48.30
2018-09-26T12:06:07.963Z,48.61
2018-09-26T12:08:38.875Z,49.49
2018-09-26T12:11:09.970Z,46.89
2018-09-26T12:13:40.040Z,47.48
2018-09-26T12:16:10.101Z,45.74
2018-09-26T12:18:40.078Z,45.85
2018-09-26T12:21:10.255Z,45.59
2018-09-26T12:23:40.228Z,44.83
2018-09-26T12:26:10.081Z,46.82
2018-09-26T12:28:40.084Z,44.37
2018-09-26T12:31:10.019Z,47.85
2018-09-26T12:33:39.887Z,46.38
2018-09-26T12:36:10.171Z,44.96
2018-09-26T12:38:40.100Z,47.54
2018-09-26T12:41:10.183Z,46.04
2018-09-26T12:43:40.153Z,46.03
2018-09-26T12:46:10.152Z,45.23
2018-09-26T12:48:40.093Z,45.50
2018-09-26T12:51:10.180Z,44.60
2018-09-26T12:53:40.151Z,44.15
2018-09-26T12:56:10.194Z,44.16
2018-09-26T12:58:41.368Z,43.48
2018-09-26T13:01:11.369Z,45.55
2018-09-26T13:03:41.203Z,44.54
2018-09-26T13:06:11.267Z,45.46
2018-09-26T13:08:41.185Z,44.18
2018-09-26T13:11:11.856Z,44.69
2018-09-26T13:13:42.308Z,44.50
2018-09-26T13:16:12.656Z,42.29
2018-09-26T13:18:43.071Z,42.04
2018-09-26T13:23:56.095Z,41.65
2018-09-26T13:26:26.292Z,41.64
2018-09-26T13:28:56.262Z,42.47
2018-09-26T13:31:26.230Z,43.79
2018-09-26T13:33:56.149Z,40.75
2018-09-26T13:36:26.217Z,41.74
2018-09-26T13:38:56.169Z,41.45
2018-09-26T13:41:26.208Z,40.48
2018-09-26T13:43:56.292Z,41.25
2018-09-26T13:46:26.371Z,43.31
2018-09-26T13:48:56.230Z,42.03
2018-09-26T13:51:28.067Z,41.50
2018-09-26T13:53:58.159Z,42.55
2018-09-26T13:56:28.156Z,40.77
2018-09-26T13:58:58.157Z,42.58
2018-09-26T14:01:28.112Z,38.62
2018-09-26T14:03:58.140Z,41.21
2018-09-26T14:06:43.743Z,41.83
2018-09-26T14:09:13.745Z,41.32
2018-09-26T14:14:35.993Z,39.72
2018-09-26T14:17:06.091Z,40.78
2018-09-26T14:19:36.015Z,38.89
2018-09-26T14:22:06.028Z,41.23
2018-09-26T14:24:35.966Z,39.45
2018-09-26T14:27:06.082Z,41.10
2018-09-26T14:29:36.022Z,39.98
2018-09-26T14:32:06.218Z,40.24
2018-09-26T14:35:01.157Z,40.22
2018-09-26T14:37:31.138Z,37.43
2018-09-26T14:40:01.319Z,40.64
2018-09-26T14:42:39.740Z,41.00
2018-09-26T14:45:09.746Z,39.66
2018-09-26T14:50:39.582Z,41.92
2018-09-26T14:53:36.071Z,42.16
2018-09-26T14:56:11.088Z,39.48
2018-09-26T14:58:41.400Z,39.66
2018-09-26T15:01:13.941Z,40.01
2018-09-26T15:03:44.145Z,39.95
2018-09-26T15:06:15.362Z,41.70
2018-09-26T15:08:45.485Z,39.27
2018-09-26T15:11:15.612Z,40.71
2018-09-26T15:13:51.978Z,40.83
2018-09-26T15:16:22.351Z,40.29
2018-09-26T15:18:56.296Z,41.32
2018-09-26T15:21:27.682Z,40.44
2018-09-26T15:23:57.978Z,42.11
2018-09-26T15:26:45.720Z,41.34
2018-09-26T15:29:32.447Z,40.46
2018-09-26T15:32:03.071Z,42.34
2018-09-26T15:34:38.525Z,42.34
2018-09-26T15:37:14.274Z,41.41
2018-09-26T15:39:44.217Z,40.75
2018-09-26T15:42:14.517Z,41.00
2018-09-26T15:44:44.497Z,40.93
2018-09-26T15:47:15.770Z,43.25
2018-09-26T15:49:45.760Z,40.94
2018-09-26T15:52:16.576Z,43.08
2018-09-26T15:54:48.517Z,42.73
2018-09-26T15:57:18.533Z,43.97
2018-09-26T15:59:53.892Z,41.59
2018-09-26T16:02:27.668Z,42.11
2018-09-26T16:04:57.640Z,41.72
2018-09-26T16:07:33.993Z,42.09
2018-09-26T16:10:05.308Z,42.91
2018-09-26T16:12:36.144Z,43.41
2018-09-26T16:15:06.700Z,44.09
2018-09-26T16:17:36.743Z,43.99
2018-09-26T16:20:07.416Z,44.47
2018-09-26T16:22:37.451Z,44.60
2018-09-26T16:25:08.122Z,44.68
2018-09-26T16:27:38.091Z,44.01
2018-09-26T16:30:08.233Z,45.34
2018-09-26T16:32:38.147Z,46.20
2018-09-26T16:35:08.120Z,45.87
2018-09-26T16:37:38.322Z,44.73
2018-09-26T16:40:08.422Z,46.20
2018-09-26T16:42:38.541Z,46.91
2018-09-26T16:45:09.082Z,45.91
2018-09-26T16:47:39.100Z,46.30
2018-09-26T16:50:09.382Z,44.73
2018-09-26T16:52:39.340Z,46.09
2018-09-26T16:55:09.427Z,47.73
2018-09-26T16:57:39.444Z,47.93
2018-09-26T17:00:09.618Z,48.50
2018-09-26T17:02:39.760Z,49.57
2018-09-26T17:05:09.795Z,49.68
2018-09-26T17:07:39.900Z,49.77
2018-09-26T17:10:12.223Z,50.96
2018-09-26T17:15:52.584Z,51.51
2018-09-26T17:18:23.347Z,52.04
2018-09-26T17:23:58.211Z,52.51
2018-09-26T17:26:50.816Z,52.31
2018-09-26T17:29:21.013Z,54.28
2018-09-26T17:31:50.965Z,54.37
2018-09-26T17:34:20.926Z,54.34
2018-09-26T17:36:50.971Z,53.86
2018-09-26T17:39:20.925Z,54.82
2018-09-26T17:41:51.820Z,54.28
2018-09-26T17:44:28.230Z,54.74
2018-09-26T17:47:07.132Z,54.79
2018-09-26T17:49:37.112Z,55.62
2018-09-26T17:52:07.075Z,56.02
2018-09-26T17:54:39.236Z,57.09
2018-09-26T17:57:09.336Z,57.57
2018-09-26T17:59:39.379Z,57.63
2018-09-26T18:02:09.572Z,57.01
2018-09-26T18:04:39.616Z,56.27
2018-09-26T18:07:09.610Z,56.31
2018-09-26T18:09:39.573Z,57.24
2018-09-26T18:12:09.832Z,58.76
2018-09-26T18:14:39.910Z,59.06
2018-09-26T18:17:11.528Z,59.57
2018-09-26T18:19:42.510Z,58.77
2018-09-26T18:22:12.640Z,58.35
2018-09-26T18:24:43.560Z,58.97
2018-09-26T18:27:13.681Z,58.46
2018-09-26T18:29:44.086Z,57.15
2018-09-26T18:32:14.113Z,57.66
2018-09-26T18:34:44.808Z,59.80
2018-09-26T18:37:15.002Z,61.73
2018-09-26T18:39:45.478Z,60.90
2018-09-26T18:42:15.402Z,61.23
2018-09-26T18:44:45.312Z,60.03
2018-09-26T18:47:21.225Z,59.92
2018-09-26T18:49:51.241Z,60.62
2018-09-26T18:52:27.337Z,60.46
2018-09-26T18:55:25.573Z,59.32
2018-09-26T18:58:08.415Z,60.12
2018-09-26T19:00:38.628Z,59.48
2018-09-26T19:03:09.444Z,59.36
2018-09-26T19:11:49.336Z,64.11
2018-09-26T19:17:22.244Z,64.00
2018-09-26T19:19:55.557Z,64.25
2018-09-26T19:22:25.876Z,65.19
2018-09-26T19:24:56.597Z,66.85
2018-09-26T19:27:26.985Z,65.74
2018-09-26T19:29:58.740Z,63.39
2018-09-26T19:32:28.868Z,61.51
2018-09-26T19:38:08.858Z,64.43
2018-09-26T19:40:39.477Z,68.99
2018-09-26T19:43:10.134Z,68.98
2018-09-26T19:45:40.113Z,68.73
2018-09-26T19:48:10.805Z,67.62
2018-09-26T19:53:28.198Z,65.82
2018-09-26T19:55:58.228Z,64.44
2018-09-26T19:58:31.235Z,64.16
2018-09-26T20:01:01.214Z,63.22
2018-09-26T20:04:01.291Z,63.56
2018-09-26T20:06:31.281Z,63.34
2018-09-26T20:09:01.327Z,66.92
2018-09-26T20:11:31.499Z,70.13
2018-09-26T20:14:01.583Z,67.12
2018-09-26T20:16:31.737Z,65.89
2018-09-26T20:19:01.786Z,66.91
2018-09-26T20:21:31.781Z,66.79
2018-09-26T20:24:01.866Z,65.09
2018-09-26T20:26:31.905Z,64.75
2018-09-26T20:29:01.901Z,66.79
2018-09-26T20:31:31.685Z,67.88
2018-09-26T20:34:01.591Z,69.09
2018-09-26T20:36:31.383Z,70.09
2018-09-26T20:39:01.240Z,69.09
2018-09-26T20:41:31.286Z,68.26
2018-09-26T20:44:01.186Z,66.97
2018-09-26T20:46:31.212Z,66.09
2018-09-26T20:49:01.268Z,70.56
2018-09-26T20:51:31.348Z,71.45
2018-09-26T20:54:01.310Z,69.68
2018-09-26T20:56:31.391Z,71.94
2018-09-26T20:59:01.380Z,69.44
2018-09-26T21:01:31.389Z,67.29
2018-09-26T21:04:01.424Z,66.60
2018-09-26T21:06:31.555Z,68.36
2018-09-26T21:09:01.490Z,68.92
2018-09-26T21:11:31.642Z,67.42
2018-09-26T21:14:01.631Z,71.11
2018-09-26T21:16:31.529Z,73.96
2018-09-26T21:19:01.545Z,71.07
2018-09-26T21:21:31.584Z,68.22
2018-09-26T21:24:03.409Z,66.85
2018-09-26T21:26:33.346Z,68.58
2018-09-26T21:29:03.355Z,70.73
2018-09-26T21:31:33.269Z,71.55
2018-09-26T21:34:03.298Z,71.64
2018-09-26T21:36:33.323Z,70.74
2018-09-26T21:39:03.437Z,69.83
2018-09-26T21:41:33.586Z,67.92
2018-09-26T21:44:03.705Z,67.02
2018-09-26T21:46:33.776Z,67.05
2018-09-26T21:49:04.170Z,69.40
2018-09-26T21:51:34.364Z,71.55
2018-09-26T21:54:04.365Z,71.58
2018-09-26T21:56:34.284Z,72.36
2018-09-26T21:59:04.315Z,71.58
2018-09-26T22:01:34.334Z,69.56
2018-09-26T22:04:04.636Z,71.68
2018-09-26T22:06:34.609Z,70.49
2018-09-26T22:09:05.151Z,68.14
2018-09-26T22:11:35.197Z,67.78
2018-09-26T22:14:05.221Z,70.71
2018-09-26T22:16:35.246Z,71.04
2018-09-26T22:19:05.894Z,71.37
2018-09-26T22:21:35.997Z,70.15
2018-09-26T22:24:06.073Z,68.95
2018-09-26T22:26:36.418Z,71.81
2018-09-26T22:29:07.164Z,72.85
2018-09-26T22:31:37.182Z,73.46
2018-09-26T22:34:07.567Z,72.25
2018-09-26T22:36:37.903Z,72.51
2018-09-26T22:39:10.573Z,71.65
2018-09-26T22:41:40.608Z,69.96
2018-09-26T22:44:10.771Z,68.67
2018-09-26T22:46:40.856Z,69.46
2018-09-26T22:49:10.835Z,71.03
2018-09-26T22:51:40.815Z,71.53
2018-09-26T22:54:10.777Z,71.78
2018-09-26T22:56:41.179Z,73.65
2018-09-26T22:59:11.282Z,75.82
2018-09-26T23:01:41.305Z,77.71
2018-09-26T23:04:11.273Z,76.08
2018-09-26T23:06:41.288Z,72.68
2018-09-26T23:09:12.428Z,73.05
2018-09-26T23:11:42.541Z,74.08
2018-09-26T23:14:12.658Z,72.45
2018-09-26T23:16:42.724Z,73.33
2018-09-26T23:19:12.663Z,75.89
2018-09-26T23:21:42.575Z,76.87
2018-09-26T23:24:12.601Z,76.02
2018-09-26T23:26:42.557Z,73.16
2018-09-26T23:29:13.575Z,71.15
2018-09-26T23:31:43.641Z,69.87
2018-09-26T23:34:13.697Z,73.39
2018-09-26T23:36:43.776Z,75.66
2018-09-26T23:39:13.855Z,72.68
2018-09-26T23:41:43.952Z,71.13
2018-09-26T23:44:13.936Z,73.50
2018-09-26T23:46:43.906Z,73.44
2018-09-26T23:49:13.923Z,74.47
2018-09-26T23:51:44.217Z,75.58
2018-09-26T23:54:14.688Z,74.46
2018-09-26T23:56:44.687Z,75.18
2018-09-26T23:59:14.707Z,75.52
